createdAt,value
2023-01-13T00:02:17.007Z,6.65
2023-01-13T00:04:58.597Z,6.67
2023-01-13T00:07:27.514Z,6.68
2023-01-13T00:10:11.943Z,6.69
2023-01-13T00:12:48.386Z,6.71
2023-01-13T00:15:26.403Z,6.72
2023-01-13T00:17:55.382Z,6.73
2023-01-13T00:20:26.333Z,6.75
2023-01-13T00:23:15.259Z,6.76
2023-01-13T00:25:44.268Z,6.77
2023-01-13T00:28:33.471Z,6.78
2023-01-13T00:31:22.523Z,6.78
2023-01-13T00:33:58.024Z,6.78
2023-01-13T00:36:29.374Z,6.78
2023-01-13T00:38:58.856Z,6.77
2023-01-13T00:42:05.838Z,6.74
2023-01-13T00:44:48.504Z,6.71
2023-01-13T00:47:28.421Z,6.70
2023-01-13T00:49:57.205Z,6.67
2023-01-13T00:52:35.355Z,6.67
2023-01-13T00:55:24.306Z,6.66
2023-01-13T00:57:53.158Z,6.66
2023-01-13T01:00:33.083Z,6.66
2023-01-13T01:03:09.157Z,6.67
2023-01-13T01:05:41.083Z,6.66
2023-01-13T01:08:09.856Z,6.66
2023-01-13T01:11:03.058Z,6.66
2023-01-13T01:13:32.496Z,6.64
2023-01-13T01:16:08.267Z,6.62
2023-01-13T01:18:57.335Z,6.60
2023-01-13T01:21:37.195Z,6.60
2023-01-13T01:24:07.087Z,6.59
2023-01-13T01:26:46.047Z,6.59
2023-01-13T01:29:17.552Z,6.61
2023-01-13T01:31:46.338Z,6.63
2023-01-13T01:34:35.744Z,6.65
2023-01-13T01:37:07.637Z,6.66
2023-01-13T01:39:44.317Z,6.67
2023-01-13T01:42:44.902Z,6.68
2023-01-13T01:45:24.933Z,6.70
2023-01-13T01:48:05.915Z,6.72
2023-01-13T01:50:35.816Z,6.74
2023-01-13T01:53:19.351Z,6.76
2023-01-13T01:55:54.606Z,6.79
2023-01-13T01:58:29.490Z,6.80
2023-01-13T02:01:18.603Z,6.80
2023-01-13T02:04:12.826Z,6.81
2023-01-13T02:07:04.226Z,6.81
2023-01-13T02:09:44.516Z,6.80
2023-01-13T02:12:34.994Z,6.80
2023-01-13T02:15:32.179Z,6.79
2023-01-13T02:18:38.101Z,6.79
2023-01-13T02:21:42.661Z,6.79
2023-01-13T02:25:04.272Z,6.79
2023-01-13T02:28:13.511Z,6.80
2023-01-13T02:31:18.009Z,6.79
2023-01-13T02:34:11.268Z,6.78
2023-01-13T02:37:08.614Z,6.79
2023-01-13T02:40:01.492Z,6.80
2023-01-13T02:42:51.823Z,6.81
2023-01-13T02:45:44.849Z,6.82
2023-01-13T02:48:19.024Z,6.83
2023-01-13T02:51:11.499Z,6.83
2023-01-13T02:53:56.561Z,6.84
2023-01-13T02:56:26.583Z,6.86
2023-01-13T02:59:10.471Z,6.85
2023-01-13T03:01:39.517Z,6.85
2023-01-13T03:05:00.836Z,6.84
2023-01-13T03:08:30.851Z,6.82
2023-01-13T03:11:08.137Z,6.81
2023-01-13T03:13:52.452Z,6.80
2023-01-13T03:16:51.986Z,6.77
2023-01-13T03:19:36.191Z,6.76
2023-01-13T03:22:22.840Z,6.75
2023-01-13T03:25:11.682Z,6.73
2023-01-13T03:33:30.187Z,6.72
2023-01-13T03:36:08.914Z,6.69
2023-01-13T03:38:46.596Z,6.69
2023-01-13T03:41:24.534Z,6.69
2023-01-13T03:44:22.426Z,6.68
2023-01-13T03:47:04.241Z,6.67
2023-01-13T03:49:42.242Z,6.67
2023-01-13T03:52:23.304Z,6.67
2023-01-13T03:54:59.106Z,6.68
2023-01-13T03:57:37.533Z,6.68
2023-01-13T04:00:14.603Z,6.70
2023-01-13T04:02:55.697Z,6.71
2023-01-13T04:05:31.285Z,6.72
2023-01-13T04:08:26.127Z,6.73
2023-01-13T04:11:04.703Z,6.75
2023-01-13T04:13:41.358Z,6.76
2023-01-13T04:16:16.425Z,6.78
2023-01-13T04:18:51.081Z,6.79
2023-01-13T04:21:23.839Z,6.79
2023-01-13T04:23:58.428Z,6.79
2023-01-13T04:26:29.284Z,6.80
2023-01-13T04:29:01.425Z,6.79
2023-01-13T04:31:34.002Z,6.79
2023-01-13T04:34:06.685Z,6.79
2023-01-13T04:36:43.693Z,6.78
2023-01-13T04:39:15.828Z,6.77
2023-01-13T04:42:00.067Z,6.77
2023-01-13T04:44:35.376Z,6.77
2023-01-13T04:47:08.227Z,6.76
2023-01-13T04:49:40.492Z,6.77
2023-01-13T04:52:12.938Z,6.78
2023-01-13T04:54:45.072Z,6.77
2023-01-13T04:57:17.314Z,6.78
2023-01-13T04:59:49.780Z,6.79
2023-01-13T05:02:22.395Z,6.80
2023-01-13T05:04:57.213Z,6.81
2023-01-13T05:07:29.593Z,6.81
2023-01-13T05:10:04.501Z,6.82
2023-01-13T05:12:54.436Z,6.84
2023-01-13T05:15:44.114Z,6.84
2023-01-13T05:18:17.341Z,6.85
2023-01-13T05:20:50.729Z,6.86
2023-01-13T05:23:40.955Z,6.85
2023-01-13T05:26:13.463Z,6.84
2023-01-13T05:28:45.882Z,6.83
2023-01-13T05:31:20.502Z,6.82
2023-01-13T05:33:51.246Z,6.80
2023-01-13T05:36:23.614Z,6.78
2023-01-13T05:38:56.127Z,6.77
2023-01-13T05:41:44.298Z,6.76
2023-01-13T05:44:16.825Z,6.75
2023-01-13T05:46:49.204Z,6.75
2023-01-13T05:49:24.230Z,6.74
2023-01-13T05:51:56.389Z,6.75
2023-01-13T05:54:31.531Z,6.77
2023-01-13T05:57:03.704Z,6.77
2023-01-13T05:59:34.551Z,6.78
2023-01-13T06:02:06.914Z,6.76
2023-01-13T06:04:39.612Z,6.77
2023-01-13T06:07:12.607Z,6.78
2023-01-13T06:09:45.142Z,6.78
2023-01-13T06:12:17.648Z,6.77
2023-01-13T06:14:50.823Z,6.76
2023-01-13T06:17:22.969Z,6.74
2023-01-13T06:19:55.090Z,6.72
2023-01-13T06:22:32.360Z,6.69
2023-01-13T06:25:09.285Z,6.67
2023-01-13T06:27:42.039Z,6.66
2023-01-13T06:30:15.332Z,6.65
2023-01-13T06:32:50.758Z,6.65
2023-01-13T06:35:26.926Z,6.65
2023-01-13T06:38:02.608Z,6.64
2023-01-13T06:40:34.725Z,6.65
2023-01-13T06:43:18.927Z,6.64
2023-01-13T06:45:54.168Z,6.64
2023-01-13T06:48:29.133Z,6.64
2023-01-13T06:51:01.954Z,6.65
2023-01-13T06:53:34.624Z,6.66
2023-01-13T06:56:07.435Z,6.66
2023-01-13T06:58:42.880Z,6.66
2023-01-13T07:01:15.588Z,6.66
2023-01-13T07:03:48.078Z,6.66
2023-01-13T07:06:21.401Z,6.67
2023-01-13T07:08:53.742Z,6.66
2023-01-13T07:11:26.133Z,6.66
2023-01-13T07:14:15.972Z,6.66
2023-01-13T07:16:48.499Z,6.67
2023-01-13T07:19:23.870Z,6.68
2023-01-13T07:21:56.357Z,6.69
2023-01-13T07:24:28.595Z,6.70
2023-01-13T07:26:59.350Z,6.72
2023-01-13T07:29:31.900Z,6.72
2023-01-13T07:32:04.487Z,6.74
2023-01-13T07:34:36.977Z,6.78
2023-01-13T07:37:09.426Z,6.81
2023-01-13T07:39:41.662Z,6.85
2023-01-13T07:42:42.818Z,6.88
2023-01-13T07:45:27.443Z,6.92
2023-01-13T07:48:11.120Z,6.96
2023-01-13T07:50:47.582Z,7.00
2023-01-13T07:53:40.330Z,7.04
2023-01-13T07:56:15.750Z,7.07
2023-01-13T07:58:50.475Z,7.13
2023-01-13T08:01:23.136Z,7.16
2023-01-13T08:03:56.113Z,7.20
2023-01-13T08:06:28.882Z,7.26
2023-01-13T08:09:01.552Z,7.31
2023-01-13T08:11:33.606Z,7.37
2023-01-13T08:14:05.707Z,7.42
2023-01-13T08:16:36.427Z,7.48
2023-01-13T08:19:08.813Z,7.52
2023-01-13T08:21:41.128Z,7.59
2023-01-13T08:24:11.969Z,7.67
2023-01-13T08:26:44.125Z,7.72
2023-01-13T08:29:20.862Z,7.78
2023-01-13T08:31:53.213Z,7.86
2023-01-13T08:34:27.742Z,7.94
2023-01-13T08:36:59.704Z,8.00
2023-01-13T08:39:32.102Z,8.02
2023-01-13T08:42:04.758Z,8.06
2023-01-13T08:44:37.485Z,8.11
2023-01-13T08:47:09.752Z,8.18
2023-01-13T08:49:42.029Z,8.20
2023-01-13T08:52:12.617Z,8.23
2023-01-13T08:54:44.971Z,8.23
2023-01-13T08:57:19.563Z,8.25
2023-01-13T08:59:52.134Z,8.27
2023-01-13T09:02:26.687Z,8.31
2023-01-13T09:05:02.901Z,8.34
2023-01-13T09:07:35.542Z,8.38
2023-01-13T09:10:09.694Z,8.41
2023-01-13T09:12:59.736Z,8.45
2023-01-13T09:15:32.068Z,8.49
2023-01-13T09:18:04.425Z,8.54
2023-01-13T09:20:36.976Z,8.56
2023-01-13T09:23:10.861Z,8.57
2023-01-13T09:25:43.461Z,8.57
2023-01-13T09:28:13.987Z,8.54
2023-01-13T09:30:46.582Z,8.52
2023-01-13T09:33:36.537Z,8.52
2023-01-13T09:36:11.493Z,8.53
2023-01-13T09:38:43.735Z,8.55
2023-01-13T09:41:34.315Z,8.54
2023-01-13T09:44:09.003Z,8.53
2023-01-13T09:46:48.320Z,8.53
2023-01-13T09:49:24.005Z,8.51
2023-01-13T09:52:05.791Z,8.50
2023-01-13T09:54:43.001Z,8.50
2023-01-13T09:57:18.166Z,8.50
2023-01-13T09:59:50.749Z,8.51
2023-01-13T10:02:39.426Z,8.53
2023-01-13T10:05:28.713Z,8.57
2023-01-13T10:08:05.292Z,8.61
2023-01-13T10:10:43.093Z,8.65
2023-01-13T10:13:21.859Z,8.68
2023-01-13T10:16:08.959Z,8.73
2023-01-13T10:18:51.903Z,8.78
2023-01-13T10:21:52.561Z,8.82
2023-01-13T10:24:41.410Z,8.86
2023-01-13T10:27:20.971Z,8.89
2023-01-13T10:29:53.221Z,8.94
2023-01-13T10:32:25.728Z,8.97
2023-01-13T10:34:58.011Z,9.00
2023-01-13T10:37:56.691Z,8.99
2023-01-13T10:40:28.943Z,9.01
2023-01-13T10:43:08.279Z,9.03
2023-01-13T10:45:40.659Z,9.07
2023-01-13T10:48:17.054Z,9.10
2023-01-13T10:50:51.654Z,9.14
2023-01-13T10:53:26.357Z,9.17
2023-01-13T10:56:06.477Z,9.22
2023-01-13T10:58:38.686Z,9.29
2023-01-13T11:01:22.188Z,9.38
2023-01-13T11:03:55.892Z,9.48
2023-01-13T11:06:30.743Z,9.57
2023-01-13T11:09:20.046Z,9.65
2023-01-13T11:11:55.925Z,9.71
2023-01-13T11:14:39.822Z,9.77
2023-01-13T11:17:32.138Z,9.82
2023-01-13T11:20:18.552Z,9.87
2023-01-13T11:22:53.119Z,9.90
2023-01-13T11:25:32.954Z,9.92
2023-01-13T11:28:14.822Z,9.93
2023-01-13T11:30:57.712Z,9.93
2023-01-13T11:33:44.008Z,9.92
2023-01-13T11:36:21.299Z,9.91
2023-01-13T11:39:00.026Z,9.93
2023-01-13T11:41:40.721Z,9.94
2023-01-13T11:44:20.626Z,9.93
2023-01-13T11:46:54.590Z,9.91
2023-01-13T11:49:31.490Z,9.88
2023-01-13T11:52:10.075Z,9.86
2023-01-13T11:55:02.487Z,9.81
2023-01-13T11:57:48.403Z,9.77
2023-01-13T12:00:28.569Z,9.72
2023-01-13T12:03:18.294Z,9.68
2023-01-13T12:06:09.705Z,9.65
2023-01-13T12:09:11.894Z,9.61
2023-01-13T12:12:10.265Z,9.59
2023-01-13T12:14:57.576Z,9.56
2023-01-13T12:17:36.043Z,9.52
2023-01-13T12:20:28.662Z,9.48
2023-01-13T12:23:01.356Z,9.44
2023-01-13T12:25:39.705Z,9.40
2023-01-13T12:28:18.288Z,9.37
2023-01-13T12:30:54.576Z,9.33
2023-01-13T12:33:41.636Z,9.32
2023-01-13T12:36:20.371Z,9.31
2023-01-13T12:38:58.322Z,9.30
2023-01-13T12:41:58.745Z,9.29
2023-01-13T12:44:30.995Z,9.27
2023-01-13T12:47:03.494Z,9.26
2023-01-13T12:49:36.635Z,9.25
2023-01-13T12:52:20.021Z,9.25
2023-01-13T12:55:14.200Z,9.25
2023-01-13T12:58:15.718Z,9.26
2023-01-13T13:01:01.913Z,9.27
2023-01-13T13:03:38.275Z,9.26
2023-01-13T13:06:24.507Z,9.25
2023-01-13T13:09:07.057Z,9.23
2023-01-13T13:12:00.560Z,9.23
2023-01-13T13:15:05.496Z,9.23
2023-01-13T13:17:45.587Z,9.23
2023-01-13T13:20:54.038Z,9.23
2023-01-13T13:23:48.081Z,9.19
2023-01-13T13:26:37.428Z,9.15
2023-01-13T13:29:35.870Z,9.13
2023-01-13T13:32:21.800Z,9.10
2023-01-13T13:35:03.172Z,9.09
2023-01-13T13:38:12.530Z,9.06
2023-01-13T13:41:06.634Z,9.05
2023-01-13T13:44:00.273Z,9.05
2023-01-13T13:46:50.818Z,9.05
2023-01-13T13:49:35.509Z,9.06
2023-01-13T13:52:15.551Z,9.08
2023-01-13T13:54:52.142Z,9.09
2023-01-13T13:57:33.861Z,9.11
2023-01-13T14:00:21.010Z,9.11
2023-01-13T14:02:55.451Z,9.12
2023-01-13T14:05:30.177Z,9.12
2023-01-13T14:08:05.207Z,9.14
2023-01-13T14:10:39.910Z,9.15
2023-01-13T14:13:20.938Z,9.16
2023-01-13T14:15:59.849Z,9.16
2023-01-13T14:18:37.156Z,9.17
2023-01-13T14:21:21.586Z,9.18
2023-01-13T14:23:57.780Z,9.17
2023-01-13T14:26:32.228Z,9.16
2023-01-13T14:29:05.279Z,9.15
2023-01-13T14:31:41.435Z,9.15
2023-01-13T14:34:32.826Z,9.14
2023-01-13T14:37:22.595Z,9.13
2023-01-13T14:39:55.481Z,9.12
2023-01-13T14:42:29.715Z,9.10
2023-01-13T14:45:02.641Z,9.09
2023-01-13T14:47:35.569Z,9.06
2023-01-13T14:50:22.988Z,9.03
2023-01-13T14:52:57.273Z,8.99
2023-01-13T14:55:36.555Z,8.96
2023-01-13T14:58:28.275Z,8.93
2023-01-13T15:01:31.037Z,8.90
2023-01-13T15:04:28.020Z,8.87
2023-01-13T15:07:01.560Z,8.83
2023-01-13T15:09:40.068Z,8.80
2023-01-13T15:12:29.672Z,8.78
2023-01-13T15:15:03.469Z,8.75
2023-01-13T15:17:35.796Z,8.73
2023-01-13T15:20:15.617Z,8.72
2023-01-13T15:22:48.655Z,8.68
2023-01-13T15:25:21.526Z,8.66
2023-01-13T15:33:43.665Z,8.60
2023-01-13T15:36:25.523Z,8.57
2023-01-13T15:38:59.063Z,8.56
2023-01-13T15:41:49.519Z,8.56
2023-01-13T15:44:39.717Z,8.55
2023-01-13T15:47:14.629Z,8.54
2023-01-13T15:49:47.967Z,8.54
2023-01-13T15:52:23.438Z,8.52
2023-01-13T15:54:56.438Z,8.52
2023-01-13T15:57:34.207Z,8.51
2023-01-13T16:00:14.247Z,8.49
2023-01-13T16:02:46.790Z,8.48
2023-01-13T16:05:21.698Z,8.47
2023-01-13T16:07:53.870Z,8.42
2023-01-13T16:10:26.801Z,8.39
2023-01-13T16:12:59.413Z,8.36
2023-01-13T16:15:31.708Z,8.34
2023-01-13T16:18:05.304Z,8.34
2023-01-13T16:20:37.484Z,8.32
2023-01-13T16:23:08.136Z,8.31
2023-01-13T16:25:40.842Z,8.28
2023-01-13T16:28:23.009Z,8.26
2023-01-13T16:30:55.470Z,8.25
2023-01-13T16:33:27.784Z,8.24
2023-01-13T16:36:10.529Z,8.23
2023-01-13T16:38:44.940Z,8.22
2023-01-13T16:41:17.683Z,8.21
2023-01-13T16:43:50.176Z,8.19
2023-01-13T16:46:27.733Z,8.18
2023-01-13T16:49:05.497Z,8.18
2023-01-13T16:51:37.818Z,8.17
2023-01-13T16:54:10.172Z,8.17
2023-01-13T16:56:42.396Z,8.18
2023-01-13T16:59:14.556Z,8.18
2023-01-13T17:01:47.986Z,8.15
2023-01-13T17:04:23.599Z,8.12
2023-01-13T17:07:00.320Z,8.09
2023-01-13T17:09:32.910Z,8.05
2023-01-13T17:12:05.358Z,7.98
2023-01-13T17:14:37.682Z,7.92
2023-01-13T17:17:23.591Z,7.86
2023-01-13T17:19:55.994Z,7.79
2023-01-13T17:22:28.516Z,7.75
2023-01-13T17:25:00.945Z,7.71
2023-01-13T17:27:33.572Z,7.69
2023-01-13T17:30:06.353Z,7.66
2023-01-13T17:32:38.985Z,7.65
2023-01-13T17:35:14.336Z,7.63
2023-01-13T17:37:46.971Z,7.60
2023-01-13T17:40:19.860Z,7.59
2023-01-13T17:42:52.769Z,7.57
2023-01-13T17:45:25.362Z,7.55
2023-01-13T17:47:59.626Z,7.53
2023-01-13T17:50:35.253Z,7.52
2023-01-13T17:53:12.384Z,7.50
2023-01-13T17:55:52.442Z,7.50
2023-01-13T17:58:30.125Z,7.50
2023-01-13T18:01:07.739Z,7.49
2023-01-13T18:03:42.762Z,7.48
2023-01-13T18:06:18.852Z,7.47
2023-01-13T18:08:51.783Z,7.47
2023-01-13T18:11:24.903Z,7.47
2023-01-13T18:13:57.929Z,7.48
2023-01-13T18:16:32.031Z,7.48
2023-01-13T18:19:31.169Z,7.48
2023-01-13T18:22:21.276Z,7.47
2023-01-13T18:25:11.098Z,7.45
2023-01-13T18:27:46.564Z,7.46
2023-01-13T18:30:19.632Z,7.46
2023-01-13T18:32:52.048Z,7.45
2023-01-13T18:35:24.573Z,7.43
2023-01-13T18:37:55.288Z,7.41
2023-01-13T18:40:27.424Z,7.39
2023-01-13T18:42:59.733Z,7.39
2023-01-13T18:45:36.374Z,7.39
2023-01-13T18:48:09.479Z,7.37
2023-01-13T18:50:41.747Z,7.36
2023-01-13T18:53:12.237Z,7.34
2023-01-13T18:55:44.685Z,7.31
2023-01-13T18:58:17.119Z,7.29
2023-01-13T19:00:52.959Z,7.27
2023-01-13T19:03:30.040Z,7.24
2023-01-13T19:06:09.659Z,7.22
2023-01-13T19:08:42.315Z,7.22
2023-01-13T19:11:42.768Z,7.21
2023-01-13T19:14:34.095Z,7.20
2023-01-13T19:17:11.296Z,7.19
2023-01-13T19:19:45.510Z,7.19
2023-01-13T19:22:38.097Z,7.18
2023-01-13T19:25:12.343Z,7.18
2023-01-13T19:27:45.414Z,7.17
2023-01-13T19:30:19.104Z,7.18
2023-01-13T19:32:51.461Z,7.20
2023-01-13T19:35:27.611Z,7.22
2023-01-13T19:38:00.131Z,7.25
2023-01-13T19:40:32.478Z,7.27
2023-01-13T19:43:24.768Z,7.27
2023-01-13T19:45:59.517Z,7.28
2023-01-13T19:48:32.031Z,7.26
2023-01-13T19:51:05.843Z,7.26
2023-01-13T19:53:38.119Z,7.27
2023-01-13T19:56:13.928Z,7.27
2023-01-13T19:58:50.605Z,7.27
2023-01-13T20:01:25.088Z,7.28
2023-01-13T20:04:04.460Z,7.28
2023-01-13T20:06:37.873Z,7.30
2023-01-13T20:09:14.788Z,7.32
2023-01-13T20:11:48.272Z,7.33
2023-01-13T20:14:20.992Z,7.34
2023-01-13T20:16:53.337Z,7.34
2023-01-13T20:19:26.442Z,7.35
2023-01-13T20:22:04.744Z,7.35
2023-01-13T20:24:38.069Z,7.35
2023-01-13T20:27:10.473Z,7.37
2023-01-13T20:29:46.168Z,7.37
2023-01-13T20:32:18.342Z,7.37
2023-01-13T20:34:50.799Z,7.37
2023-01-13T20:37:23.410Z,7.35
2023-01-13T20:39:58.255Z,7.34
2023-01-13T20:42:31.666Z,7.32
2023-01-13T20:45:04.119Z,7.31
2023-01-13T20:47:36.412Z,7.31
2023-01-13T20:50:12.743Z,7.29
2023-01-13T20:52:45.557Z,7.29
2023-01-13T20:55:20.959Z,7.29
2023-01-13T20:57:53.313Z,7.28
2023-01-13T21:00:24.544Z,7.28
2023-01-13T21:02:56.661Z,7.27
2023-01-13T21:05:29.646Z,7.29
2023-01-13T21:08:01.945Z,7.31
2023-01-13T21:10:34.116Z,7.32
2023-01-13T21:13:23.939Z,7.32
2023-01-13T21:15:56.538Z,7.32
2023-01-13T21:18:48.521Z,7.32
2023-01-13T21:21:21.784Z,7.32
2023-01-13T21:23:54.505Z,7.32
2023-01-13T21:26:26.978Z,7.31
2023-01-13T21:29:02.402Z,7.31
2023-01-13T21:31:34.519Z,7.32
2023-01-13T21:34:06.798Z,7.31
2023-01-13T21:36:39.352Z,7.30
2023-01-13T21:39:14.227Z,7.28
2023-01-13T21:42:04.490Z,7.27
2023-01-13T21:44:54.848Z,7.27
2023-01-13T21:47:44.759Z,7.25
2023-01-13T21:50:19.340Z,7.23
2023-01-13T21:52:53.393Z,7.20
2023-01-13T21:55:28.605Z,7.16
2023-01-13T21:58:13.445Z,7.11
2023-01-13T22:00:46.501Z,7.07
2023-01-13T22:03:22.298Z,7.06
2023-01-13T22:05:57.895Z,7.06
2023-01-13T22:08:33.552Z,7.08
2023-01-13T22:11:06.627Z,7.10
2023-01-13T22:13:58.191Z,7.11
2023-01-13T22:16:31.605Z,7.11
2023-01-13T22:19:04.487Z,7.12
2023-01-13T22:21:37.624Z,7.11
2023-01-13T22:24:10.661Z,7.10
2023-01-13T22:26:43.016Z,7.06
2023-01-13T22:29:13.886Z,7.03
2023-01-13T22:31:57.161Z,6.98
2023-01-13T22:34:32.840Z,6.95
2023-01-13T22:37:05.705Z,6.91
2023-01-13T22:39:38.066Z,6.86
2023-01-13T22:42:11.697Z,6.82
2023-01-13T22:44:45.530Z,6.77
2023-01-13T22:47:18.093Z,6.73
2023-01-13T22:49:50.172Z,6.68
2023-01-13T22:52:22.608Z,6.64
2023-01-13T22:54:55.045Z,6.61
2023-01-13T22:57:25.718Z,6.58
2023-01-13T22:59:58.029Z,6.54
2023-01-13T23:02:34.465Z,6.50
2023-01-13T23:05:10.806Z,6.46
2023-01-13T23:07:43.381Z,6.41
2023-01-13T23:10:15.971Z,6.38
2023-01-13T23:12:48.998Z,6.37
2023-01-13T23:15:21.330Z,6.38
2023-01-13T23:17:52.399Z,6.38
2023-01-13T23:20:25.102Z,6.36
2023-01-13T23:22:59.112Z,6.35
2023-01-13T23:25:31.696Z,6.34
2023-01-13T23:28:04.032Z,6.30
2023-01-13T23:30:36.241Z,6.27
2023-01-13T23:33:08.894Z,6.24
2023-01-13T23:35:39.396Z,6.23
2023-01-13T23:38:11.597Z,6.21
2023-01-13T23:40:46.395Z,6.19
2023-01-13T23:43:21.381Z,6.17
2023-01-13T23:46:03.941Z,6.14
2023-01-13T23:48:36.802Z,6.13
2023-01-13T23:51:12.341Z,6.12
2023-01-13T23:53:47.118Z,6.09
2023-01-13T23:56:21.750Z,6.07
2023-01-13T23:58:54.468Z,6.04
